Airfield :
LOGIN :

Register | Disclaimer

   EN    FR    IT 

 










Legend :    VFR   Marginal VFR   IFR   Intensive IFR   Very Intensive IFR
Visi :
Ceiling :
>= 8 km
>= 3000ft
5 to 8 km
1000 to 3000 ft
1500m to 5 km
500 to 1000 ft
800 to 1500m
200 to 500 ft
< 800m
< 200 ft
Symbols :   Thunderstorms  Fog  Heavy snow  Heavy precipitations  Wind > 20 kt
SIGMETs :     Misc.  Thunderstorms  Icing  Turbulence  Mountain Waves  Volcanic Ashes






- Airport Elevation : -15 ft
- IATA code : RTM


EHRD - Rotterdam Zestienhoven

CURRENT METAR :
  • 172125Z AUTO 24010KT 9999 SCT029 BKN034 BKN039 07/03 Q1017 NOSIG

EXPIRED METARs :
  • 172055Z AUTO 25010KT 220V280 9999 FEW028 BKN032 BKN039 07/02 Q1017 NOSIG
  • 172025Z AUTO 26010KT 220V300 9999 SCT026 BKN030 BKN034 07/02 Q1017 NOSIG
  • 171955Z AUTO 27012KT 230V300 9999 FEW028 SCT032 06/02 Q1016 NOSIG
  • 171925Z AUTO 26013KT 220V290 9999 SCT023 BKN026 OVC032 07/03 Q1016 NOSIG
  • 171855Z AUTO 25015KT 220V290 9999 FEW025 OVC035 07/03 Q1015 NOSIG

TAF TAF EHRD
Valid from the 17 at 18:00 until the 19 at 00:00 UTC


171717Z 1718/1824 25019KT 9999 SCT020
BECMG 1718/1720 27020G30KT
BECMG 1720/1723 25012KT
PROB30
TEMPO 1806/1818 29015G25KT 6000 SHRA SCT018CB BKN020
BECMG 1807/1810 29012KT



MET'MAP, your aeronautical weather chart ! - Copyright ORBIFLY December 2007 - Disclaimer

ORBIFLY MET'MAP TEAM :

Programming & Development : Alexandra Zaïnal
Concept & original design : Baudouin d'Aumeries
Assistance for programming : Marc-Olivier Méhu
Technical & hardware support : Manuel Goepfert

Contact : metmap@orbifly.com




SOURCES & CREDITS :

   NOAA